createdAt,value
2023-11-23T00:04:26.102Z,-1.55
2023-11-23T00:09:33.818Z,-1.55
2023-11-23T00:14:41.145Z,-1.56
2023-11-23T00:19:48.958Z,-1.57
2023-11-23T00:24:56.631Z,-1.58
2023-11-23T00:30:04.182Z,-1.60
2023-11-23T00:35:11.960Z,-1.62
2023-11-23T00:40:19.618Z,-1.62
2023-11-23T00:45:27.009Z,-1.63
2023-11-23T00:50:34.673Z,-1.64
2023-11-23T00:55:42.076Z,-1.63
2023-11-23T01:00:49.619Z,-1.63
2023-11-23T01:05:57.413Z,-1.62
2023-11-23T01:11:04.742Z,-1.61
2023-11-23T01:16:13.247Z,-1.58
2023-11-23T01:21:21.224Z,-1.56
2023-11-23T01:26:28.514Z,-1.52
2023-11-23T01:31:36.011Z,-1.48
2023-11-23T01:36:43.324Z,-1.47
2023-11-23T01:41:50.669Z,-1.45
2023-11-23T01:46:59.618Z,-1.48
2023-11-23T01:52:07.640Z,-1.48
2023-11-23T01:57:17.225Z,-1.47
2023-11-23T02:02:24.574Z,-1.47
2023-11-23T02:07:31.809Z,-1.48
2023-11-23T02:12:39.867Z,-1.48
2023-11-23T02:17:47.375Z,-1.48
2023-11-23T02:22:54.770Z,-1.44
2023-11-23T02:28:02.049Z,-1.43
2023-11-23T02:33:12.597Z,-1.35
2023-11-23T02:38:19.999Z,-1.33
2023-11-23T02:43:27.992Z,-1.31
2023-11-23T02:48:35.375Z,-1.26
2023-11-23T02:53:45.404Z,-1.20
2023-11-23T02:58:52.955Z,-1.13
2023-11-23T03:04:00.670Z,-1.04
2023-11-23T03:09:09.789Z,-0.97
2023-11-23T03:14:17.850Z,-0.90
2023-11-23T03:19:25.052Z,-0.81
2023-11-23T03:24:32.844Z,-0.76
2023-11-23T03:29:40.281Z,-0.71
2023-11-23T03:34:47.863Z,-0.64
2023-11-23T03:39:56.552Z,-0.58
2023-11-23T03:45:04.967Z,-0.52
2023-11-23T03:50:12.810Z,-0.44
2023-11-23T03:55:20.210Z,-0.37
2023-11-23T04:00:29.251Z,-0.29
2023-11-23T04:05:38.643Z,-0.18
2023-11-23T04:10:46.068Z,-0.13
2023-11-23T04:15:53.305Z,-0.06
2023-11-23T04:21:00.700Z,-0.01
2023-11-23T04:26:09.277Z,0.03
2023-11-23T04:31:16.407Z,0.09
2023-11-23T04:36:24.759Z,0.14
2023-11-23T04:41:32.006Z,0.18
2023-11-23T04:46:39.403Z,0.23
2023-11-23T04:51:46.719Z,0.27
2023-11-23T04:56:54.393Z,0.33
2023-11-23T05:02:04.102Z,0.37
2023-11-23T05:07:11.585Z,0.44
2023-11-23T05:12:19.251Z,0.58
2023-11-23T05:17:26.531Z,0.73
2023-11-23T05:22:34.410Z,0.87
2023-11-23T05:27:41.798Z,0.99
2023-11-23T05:32:49.293Z,1.11
2023-11-23T05:37:56.585Z,1.19
2023-11-23T05:43:06.175Z,1.26
2023-11-23T05:48:13.992Z,1.35
2023-11-23T05:53:21.235Z,1.40
2023-11-23T05:58:29.210Z,1.46
2023-11-23T06:03:38.472Z,1.55
2023-11-23T06:08:45.744Z,1.62
2023-11-23T06:13:53.023Z,1.69
2023-11-23T06:19:03.518Z,1.77
2023-11-23T06:24:12.535Z,1.84
2023-11-23T06:29:19.992Z,1.92
2023-11-23T06:34:27.431Z,1.96
2023-11-23T06:39:38.291Z,2.02
2023-11-23T06:44:45.689Z,2.05
2023-11-23T06:49:53.061Z,2.08
2023-11-23T06:55:00.452Z,2.12
2023-11-23T07:00:18.365Z,2.20
2023-11-23T07:05:26.662Z,2.25
2023-11-23T07:10:35.740Z,2.30
2023-11-23T07:15:43.241Z,2.40
2023-11-23T07:20:54.651Z,2.48
2023-11-23T07:26:02.204Z,2.59
2023-11-23T07:31:10.675Z,2.64
2023-11-23T07:36:18.277Z,2.69
2023-11-23T07:41:25.737Z,2.74
2023-11-23T07:46:33.425Z,2.80
2023-11-23T07:51:41.144Z,2.88
2023-11-23T07:56:49.448Z,2.92
2023-11-23T08:01:57.933Z,2.94
2023-11-23T08:07:05.582Z,2.97
2023-11-23T08:12:13.310Z,3.01
2023-11-23T08:17:20.664Z,3.06
2023-11-23T08:22:28.162Z,3.10
2023-11-23T08:27:36.622Z,3.16
2023-11-23T08:32:45.361Z,3.23
2023-11-23T08:37:52.709Z,3.33
2023-11-23T08:43:00.435Z,3.41
2023-11-23T08:48:09.380Z,3.49
2023-11-23T08:53:17.370Z,3.56
2023-11-23T08:58:25.739Z,3.66
2023-11-23T09:03:34.143Z,3.75
2023-11-23T09:08:42.840Z,3.85
2023-11-23T09:13:50.217Z,3.97
2023-11-23T09:19:34.363Z,4.07
2023-11-23T09:24:41.939Z,4.21
2023-11-23T09:29:49.792Z,4.36
2023-11-23T09:34:57.550Z,4.49
2023-11-23T09:40:06.622Z,4.58
2023-11-23T09:45:19.147Z,4.68
2023-11-23T09:50:34.027Z,4.84
2023-11-23T09:55:45.073Z,5.03
2023-11-23T10:00:53.749Z,5.27
2023-11-23T10:06:01.355Z,5.48
2023-11-23T10:11:09.406Z,5.66
2023-11-23T10:16:17.377Z,5.83
2023-11-23T10:21:25.346Z,5.99
2023-11-23T10:26:33.720Z,6.14
2023-11-23T10:31:41.210Z,6.30
2023-11-23T10:36:51.117Z,6.41
2023-11-23T10:41:58.761Z,6.50
2023-11-23T10:47:09.011Z,6.60
2023-11-23T10:52:19.677Z,6.70
2023-11-23T10:57:28.769Z,6.82
2023-11-23T11:02:36.575Z,6.95
2023-11-23T11:07:44.185Z,7.10
2023-11-23T11:12:52.571Z,7.19
2023-11-23T11:18:08.580Z,7.25
2023-11-23T11:23:16.117Z,7.31
2023-11-23T11:28:24.609Z,7.36
2023-11-23T11:33:33.684Z,7.42
2023-11-23T11:38:42.153Z,7.49
2023-11-23T11:43:50.824Z,7.59
2023-11-23T11:48:59.754Z,7.70
2023-11-23T11:54:08.357Z,7.75
2023-11-23T11:59:19.065Z,7.77
2023-11-23T12:04:26.589Z,7.77
2023-11-23T12:09:41.251Z,7.74
2023-11-23T12:14:51.457Z,7.73
2023-11-23T12:19:59.356Z,7.71
2023-11-23T12:25:10.539Z,7.71
2023-11-23T12:30:18.171Z,7.73
2023-11-23T12:35:27.737Z,7.65
2023-11-23T12:40:35.322Z,7.43
2023-11-23T12:45:44.750Z,7.22
2023-11-23T12:50:52.609Z,7.07
2023-11-23T12:56:00.578Z,6.97
2023-11-23T13:01:09.168Z,6.89
2023-11-23T13:06:17.553Z,6.79
2023-11-23T13:11:25.148Z,6.72
2023-11-23T13:16:32.929Z,6.67
2023-11-23T13:21:40.449Z,6.60
2023-11-23T13:26:48.307Z,6.45
2023-11-23T13:31:59.302Z,6.28
2023-11-23T13:37:07.030Z,6.19
2023-11-23T13:42:15.906Z,6.11
2023-11-23T13:47:25.345Z,6.09
2023-11-23T13:52:33.583Z,6.09
2023-11-23T13:57:41.297Z,6.09
2023-11-23T14:02:48.943Z,6.11
2023-11-23T14:07:57.232Z,6.13
2023-11-23T14:13:05.289Z,6.15
2023-11-23T14:18:14.789Z,6.17
2023-11-23T14:23:22.462Z,6.19
2023-11-23T14:28:29.992Z,6.20
2023-11-23T14:33:37.405Z,6.19
2023-11-23T14:38:44.884Z,6.18
2023-11-23T14:43:52.904Z,6.21
2023-11-23T14:49:00.217Z,6.24
2023-11-23T14:54:10.860Z,6.22
2023-11-23T14:59:20.147Z,6.24
2023-11-23T15:04:27.704Z,6.26
2023-11-23T15:09:35.331Z,6.26
2023-11-23T15:14:43.491Z,6.28
2023-11-23T15:19:51.741Z,6.31
2023-11-23T15:25:08.312Z,6.34
2023-11-23T15:30:18.225Z,6.40
2023-11-23T15:35:25.723Z,6.47
2023-11-23T15:40:33.007Z,6.48
2023-11-23T15:45:42.651Z,6.49
2023-11-23T15:50:50.509Z,6.52
2023-11-23T15:55:57.895Z,6.54
2023-11-23T16:01:09.309Z,6.56
2023-11-23T16:06:16.756Z,6.62
2023-11-23T16:11:24.029Z,6.67
2023-11-23T16:16:32.217Z,6.69
2023-11-23T16:21:41.459Z,6.73
2023-11-23T16:26:48.851Z,6.80
2023-11-23T16:32:01.746Z,6.86
2023-11-23T16:37:12.391Z,7.06
2023-11-23T16:42:20.223Z,7.35
2023-11-23T16:47:27.580Z,7.51
2023-11-23T16:52:35.015Z,7.94
2023-11-23T16:57:44.216Z,8.20
2023-11-23T17:02:51.560Z,8.35
2023-11-23T17:07:59.185Z,8.38
2023-11-23T17:13:07.854Z,8.41
2023-11-23T17:18:15.723Z,8.37
2023-11-23T17:23:23.144Z,8.32
2023-11-23T17:28:30.369Z,8.27
2023-11-23T17:33:38.326Z,8.28
2023-11-23T17:38:45.898Z,8.29
2023-11-23T17:43:53.237Z,8.28
2023-11-23T17:49:00.704Z,8.29
2023-11-23T17:54:09.085Z,8.36
2023-11-23T17:59:26.219Z,8.42
2023-11-23T18:04:42.037Z,8.47
2023-11-23T18:09:50.616Z,8.53
2023-11-23T18:14:58.037Z,8.58
2023-11-23T18:20:06.724Z,8.66
2023-11-23T18:25:14.091Z,8.72
2023-11-23T18:30:22.205Z,8.73
2023-11-23T18:35:29.608Z,8.73
2023-11-23T18:40:37.168Z,8.79
2023-11-23T18:45:44.474Z,8.87
2023-11-23T18:50:51.883Z,8.92
2023-11-23T18:55:59.139Z,8.95
2023-11-23T19:01:06.841Z,8.93
2023-11-23T19:06:14.511Z,8.95
2023-11-23T19:11:21.881Z,8.98
2023-11-23T19:16:29.321Z,9.00
2023-11-23T19:21:45.275Z,9.03
2023-11-23T19:26:54.237Z,9.06
2023-11-23T19:32:08.942Z,9.08
2023-11-23T19:37:17.730Z,9.11
2023-11-23T19:42:26.961Z,9.15
2023-11-23T19:47:35.234Z,9.17
2023-11-23T19:52:46.391Z,9.24
2023-11-23T19:57:53.845Z,9.31
2023-11-23T20:03:01.246Z,9.35
2023-11-23T20:08:13.814Z,9.38
2023-11-23T20:13:21.318Z,9.42
2023-11-23T20:18:29.766Z,9.45
2023-11-23T20:23:37.139Z,9.46
2023-11-23T20:28:45.183Z,9.52
2023-11-23T20:33:52.618Z,9.55
2023-11-23T20:39:00.195Z,9.54
2023-11-23T20:44:08.008Z,9.56
2023-11-23T20:49:15.555Z,9.61
2023-11-23T20:54:23.847Z,9.67
2023-11-23T20:59:32.045Z,9.74
2023-11-23T21:04:41.754Z,9.81
2023-11-23T21:09:51.518Z,9.86
2023-11-23T21:14:59.072Z,9.92
2023-11-23T21:20:07.859Z,9.97
2023-11-23T21:25:15.879Z,10.00
2023-11-23T21:30:23.574Z,10.05
2023-11-23T21:35:33.794Z,10.05
2023-11-23T21:40:41.671Z,10.08
2023-11-23T21:45:49.036Z,10.08
2023-11-23T21:50:56.366Z,10.11
2023-11-23T21:56:04.134Z,10.14
2023-11-23T22:01:12.267Z,10.15
2023-11-23T22:06:19.798Z,10.12
2023-11-23T22:11:27.404Z,10.13
2023-11-23T22:16:35.266Z,10.14
2023-11-23T22:21:45.894Z,10.08
2023-11-23T22:26:54.236Z,9.81
2023-11-23T22:32:02.502Z,9.53
2023-11-23T22:37:10.848Z,9.26
2023-11-23T22:42:19.504Z,8.94
2023-11-23T22:47:26.807Z,8.31
2023-11-23T22:52:34.267Z,7.27
2023-11-23T22:57:41.768Z,6.65
2023-11-23T23:02:49.299Z,6.26
2023-11-23T23:07:58.099Z,6.09
2023-11-23T23:13:05.715Z,6.05
2023-11-23T23:18:13.277Z,6.06
2023-11-23T23:23:20.743Z,6.11
2023-11-23T23:28:32.107Z,6.17
2023-11-23T23:33:40.227Z,6.26
2023-11-23T23:38:47.966Z,6.35
2023-11-23T23:43:55.261Z,6.31
2023-11-23T23:49:02.970Z,6.18
2023-11-23T23:54:10.513Z,6.08
2023-11-23T23:59:17.864Z,6.00
